sensor_id;sensor_type;location;lat;lon;timestamp;pressure;altitude;pressure_sealevel;temperature;humidity
48964;BME280;34776;48.180;16.420;2023-07-31T00:00:51;62584.25;;;-146.92;100.00
48964;BME280;34776;48.180;16.420;2023-07-31T00:08:52;62584.25;;;-146.92;100.00
48964;BME280;34776;48.180;16.420;2023-07-31T00:19:02;62584.25;;;-146.92;100.00
48964;BME280;34776;48.180;16.420;2023-07-31T00:21:28;62584.25;;;-146.92;100.00
48964;BME280;34776;48.180;16.420;2023-07-31T00:34:10;62584.25;;;-146.92;100.00
48964;BME280;34776;48.180;16.420;2023-07-31T00:42:13;62584.25;;;-146.92;100.00
48964;BME280;34776;48.180;16.420;2023-07-31T00:44:38;62584.25;;;-146.92;100.00
48964;BME280;34776;48.180;16.420;2023-07-31T00:47:04;62584.25;;;-146.92;100.00
48964;BME280;34776;48.180;16.420;2023-07-31T00:49:30;62584.25;;;-146.92;100.00
48964;BME280;34776;48.180;16.420;2023-07-31T00:54:31;62584.25;;;-146.92;100.00
48964;BME280;34776;48.180;16.420;2023-07-31T01:07:24;62584.25;;;-146.92;100.00
48964;BME280;34776;48.180;16.420;2023-07-31T01:15:06;62584.25;;;-146.92;100.00
48964;BME280;34776;48.180;16.420;2023-07-31T01:33:09;62584.25;;;-146.92;100.00
48964;BME280;34776;48.180;16.420;2023-07-31T01:38:10;62584.25;;;-146.92;100.00
48964;BME280;34776;48.180;16.420;2023-07-31T01:40:41;62584.25;;;-146.92;100.00
48964;BME280;34776;48.180;16.420;2023-07-31T01:50:44;62584.25;;;-146.92;100.00
48964;BME280;34776;48.180;16.420;2023-07-31T01:55:45;62584.25;;;-146.92;100.00
48964;BME280;34776;48.180;16.420;2023-07-31T01:58:10;62584.25;;;-146.92;100.00
48964;BME280;34776;48.180;16.420;2023-07-31T02:10:51;62584.25;;;-146.92;100.00
48964;BME280;34776;48.180;16.420;2023-07-31T02:13:17;62584.25;;;-146.92;100.00
48964;BME280;34776;48.180;16.420;2023-07-31T02:34:10;62584.25;;;-146.92;100.00
48964;BME280;34776;48.180;16.420;2023-07-31T02:39:10;62584.25;;;-146.92;100.00
48964;BME280;34776;48.180;16.420;2023-07-31T02:49:16;62584.25;;;-146.92;100.00
48964;BME280;34776;48.180;16.420;2023-07-31T02:56:52;62584.25;;;-146.92;100.00
48964;BME280;34776;48.180;16.420;2023-07-31T03:12:32;62584.25;;;-146.92;100.00
48964;BME280;34776;48.180;16.420;2023-07-31T03:27:36;62584.25;;;-146.92;100.00
48964;BME280;34776;48.180;16.420;2023-07-31T03:30:03;62584.25;;;-146.92;100.00
48964;BME280;34776;48.180;16.420;2023-07-31T03:32:52;62584.25;;;-146.92;100.00
48964;BME280;34776;48.180;16.420;2023-07-31T03:35:17;62584.25;;;-146.92;100.00
48964;BME280;34776;48.180;16.420;2023-07-31T03:37:43;62584.25;;;-146.92;100.00
48964;BME280;34776;48.180;16.420;2023-07-31T03:40:11;62584.25;;;-146.92;100.00
48964;BME280;34776;48.180;16.420;2023-07-31T03:42:36;62584.25;;;-146.92;100.00
48964;BME280;34776;48.180;16.420;2023-07-31T03:55:22;62584.25;;;-146.92;100.00
48964;BME280;34776;48.180;16.420;2023-07-31T04:02:58;62584.25;;;-146.92;100.00
48964;BME280;34776;48.180;16.420;2023-07-31T04:05:23;62584.25;;;-146.92;100.00
48964;BME280;34776;48.180;16.420;2023-07-31T04:13:00;62584.25;;;-146.92;100.00
48964;BME280;34776;48.180;16.420;2023-07-31T04:15:26;62584.25;;;-146.92;100.00
48964;BME280;34776;48.180;16.420;2023-07-31T04:17:51;62584.25;;;-146.92;100.00
48964;BME280;34776;48.180;16.420;2023-07-31T04:20:17;62584.25;;;-146.92;100.00
48964;BME280;34776;48.180;16.420;2023-07-31T04:27:47;62584.25;;;-146.92;100.00
48964;BME280;34776;48.180;16.420;2023-07-31T04:35:23;62584.25;;;-146.92;100.00
48964;BME280;34776;48.180;16.420;2023-07-31T04:37:48;62584.25;;;-146.92;100.00
48964;BME280;34776;48.180;16.420;2023-07-31T04:40:15;62584.25;;;-146.92;100.00
48964;BME280;34776;48.180;16.420;2023-07-31T04:42:40;62584.25;;;-146.92;100.00
48964;BME280;34776;48.180;16.420;2023-07-31T04:47:38;62584.25;;;-146.92;100.00
48964;BME280;34776;48.180;16.420;2023-07-31T04:52:38;62584.25;;;-146.92;100.00
48964;BME280;34776;48.180;16.420;2023-07-31T05:02:48;62584.25;;;-146.92;100.00
48964;BME280;34776;48.180;16.420;2023-07-31T05:05:13;62584.25;;;-146.92;100.00
48964;BME280;34776;48.180;16.420;2023-07-31T05:07:39;62584.25;;;-146.92;100.00
48964;BME280;34776;48.180;16.420;2023-07-31T05:10:04;62584.25;;;-146.92;100.00
48964;BME280;34776;48.180;16.420;2023-07-31T05:38:21;62584.25;;;-146.92;100.00
48964;BME280;34776;48.180;16.420;2023-07-31T05:40:47;62584.25;;;-146.92;100.00
48964;BME280;34776;48.180;16.420;2023-07-31T05:43:12;62584.25;;;-146.92;100.00
48964;BME280;34776;48.180;16.420;2023-07-31T05:45:38;62584.25;;;-146.92;100.00
48964;BME280;34776;48.180;16.420;2023-07-31T05:50:39;62584.25;;;-146.92;100.00
48964;BME280;34776;48.180;16.420;2023-07-31T05:53:05;62584.25;;;-146.92;100.00
48964;BME280;34776;48.180;16.420;2023-07-31T05:55:31;62584.25;;;-146.92;100.00
48964;BME280;34776;48.180;16.420;2023-07-31T05:57:56;62584.25;;;-146.92;100.00
48964;BME280;34776;48.180;16.420;2023-07-31T06:01:10;99755.69;;;22.62;52.40
48964;BME280;34776;48.180;16.420;2023-07-31T06:08:41;99758.19;;;23.07;50.77
48964;BME280;34776;48.180;16.420;2023-07-31T06:11:07;99759.03;;;23.34;50.90
48964;BME280;34776;48.180;16.420;2023-07-31T06:13:34;99756.38;;;23.50;50.22
48964;BME280;34776;48.180;16.420;2023-07-31T06:15:59;99755.41;;;23.68;49.63
48964;BME280;34776;48.180;16.420;2023-07-31T06:39:14;99758.22;;;28.56;40.54
48964;BME280;34776;48.180;16.420;2023-07-31T06:41:39;99752.16;;;29.10;38.87
48964;BME280;34776;48.180;16.420;2023-07-31T06:44:04;99756.63;;;30.27;36.98
48964;BME280;34776;48.180;16.420;2023-07-31T06:46:30;99751.41;;;31.06;35.32
48964;BME280;34776;48.180;16.420;2023-07-31T06:51:30;99756.34;;;32.39;32.25
48964;BME280;34776;48.180;16.420;2023-07-31T06:53:57;99743.94;;;34.09;29.82
48964;BME280;34776;48.180;16.420;2023-07-31T06:58:57;99746.69;;;37.28;25.56
48964;BME280;34776;48.180;16.420;2023-07-31T07:01:23;99749.44;;;38.81;25.08
48964;BME280;34776;48.180;16.420;2023-07-31T07:03:48;99744.47;;;39.89;23.52
48964;BME280;34776;48.180;16.420;2023-07-31T07:06:16;99748.75;;;40.32;21.94
48964;BME280;34776;48.180;16.420;2023-07-31T07:08:42;99750.16;;;40.50;21.81
48964;BME280;34776;48.180;16.420;2023-07-31T07:11:07;99742.09;;;40.38;21.96
48964;BME280;34776;48.180;16.420;2023-07-31T07:13:34;99749.00;;;41.08;20.99
48964;BME280;34776;48.180;16.420;2023-07-31T07:15:59;99747.13;;;41.68;20.18
48964;BME280;34776;48.180;16.420;2023-07-31T07:18:25;99741.13;;;41.95;19.06
48964;BME280;34776;48.180;16.420;2023-07-31T07:20:51;99748.19;;;42.27;18.77
48964;BME280;34776;48.180;16.420;2023-07-31T07:23:17;99741.75;;;40.14;24.57
48964;BME280;34776;48.180;16.420;2023-07-31T10:56:37;99599.91;;;30.64;27.21
48964;BME280;34776;48.180;16.420;2023-07-31T10:59:03;99580.94;;;30.69;27.72
48964;BME280;34776;48.180;16.420;2023-07-31T12:04:27;99503.91;;;30.77;26.28
48964;BME280;34776;48.180;16.420;2023-07-31T12:06:53;99499.06;;;30.66;25.44
48964;BME280;34776;48.180;16.420;2023-07-31T12:09:18;99502.44;;;30.68;25.58
48964;BME280;34776;48.180;16.420;2023-07-31T12:11:44;99496.91;;;30.88;25.09
48964;BME280;34776;48.180;16.420;2023-07-31T12:14:27;99503.59;;;30.99;24.64
48964;BME280;34776;48.180;16.420;2023-07-31T12:16:57;99489.66;;;31.32;25.61
48964;BME280;34776;48.180;16.420;2023-07-31T12:22:14;99473.13;;;31.70;25.22
48964;BME280;34776;48.180;16.420;2023-07-31T12:24:42;99469.78;;;32.12;24.75
48964;BME280;34776;48.180;16.420;2023-07-31T12:27:14;99467.88;;;32.31;24.86
48964;BME280;34776;48.180;16.420;2023-07-31T12:29:41;99464.38;;;32.05;25.01
48964;BME280;34776;48.180;16.420;2023-07-31T12:32:24;99463.97;;;32.02;23.93
48964;BME280;34776;48.180;16.420;2023-07-31T12:34:54;99460.78;;;31.98;24.89
48964;BME280;34776;48.180;16.420;2023-07-31T12:37:23;99460.25;;;32.14;25.34
48964;BME280;34776;48.180;16.420;2023-07-31T12:39:49;99460.94;;;32.28;25.17
48964;BME280;34776;48.180;16.420;2023-07-31T12:42:17;99458.50;;;32.39;24.66
48964;BME280;34776;48.180;16.420;2023-07-31T12:44:42;99445.97;;;32.24;24.46
48964;BME280;34776;48.180;16.420;2023-07-31T12:47:08;99436.41;;;32.08;24.84
48964;BME280;34776;48.180;16.420;2023-07-31T12:49:33;99442.53;;;32.10;25.06
48964;BME280;34776;48.180;16.420;2023-07-31T12:51:59;99440.56;;;32.18;24.64
48964;BME280;34776;48.180;16.420;2023-07-31T12:54:24;99432.31;;;32.36;24.15
48964;BME280;34776;48.180;16.420;2023-07-31T12:56:49;99425.72;;;32.19;24.44
48964;BME280;34776;48.180;16.420;2023-07-31T12:59:15;99429.25;;;32.07;24.27
48964;BME280;34776;48.180;16.420;2023-07-31T13:04:15;99414.09;;;31.98;24.08
48964;BME280;34776;48.180;16.420;2023-07-31T13:06:42;99415.34;;;32.02;24.27
48964;BME280;34776;48.180;16.420;2023-07-31T13:09:08;99416.25;;;32.14;24.03
48964;BME280;34776;48.180;16.420;2023-07-31T13:11:34;99417.56;;;32.30;23.99
48964;BME280;34776;48.180;16.420;2023-07-31T13:13:59;99409.19;;;32.07;24.25
48964;BME280;34776;48.180;16.420;2023-07-31T13:16:25;99406.19;;;32.08;24.24
48964;BME280;34776;48.180;16.420;2023-07-31T13:19:01;99402.69;;;32.20;23.77
48964;BME280;34776;48.180;16.420;2023-07-31T13:21:28;99396.78;;;32.34;24.01
48964;BME280;34776;48.180;16.420;2023-07-31T13:23:54;99403.59;;;32.32;24.15
48964;BME280;34776;48.180;16.420;2023-07-31T13:26:19;99388.31;;;31.99;24.13
48964;BME280;34776;48.180;16.420;2023-07-31T13:28:45;99389.47;;;32.10;24.32
48964;BME280;34776;48.180;16.420;2023-07-31T13:31:11;99382.03;;;32.29;23.73
48964;BME280;34776;48.180;16.420;2023-07-31T13:33:36;99378.03;;;32.43;24.01
48964;BME280;34776;48.180;16.420;2023-07-31T13:36:03;99374.34;;;32.68;24.20
48964;BME280;34776;48.180;16.420;2023-07-31T13:38:29;99372.06;;;32.65;23.77
48964;BME280;34776;48.180;16.420;2023-07-31T13:40:54;99377.06;;;32.38;24.09
48964;BME280;34776;48.180;16.420;2023-07-31T13:43:19;99377.75;;;32.33;24.30
48964;BME280;34776;48.180;16.420;2023-07-31T13:45:44;99372.66;;;32.18;23.99
48964;BME280;34776;48.180;16.420;2023-07-31T13:48:10;99367.84;;;32.32;23.89
48964;BME280;34776;48.180;16.420;2023-07-31T13:50:35;99366.94;;;32.20;23.34
48964;BME280;34776;48.180;16.420;2023-07-31T13:53:00;99361.25;;;31.96;23.33
48964;BME280;34776;48.180;16.420;2023-07-31T13:55:26;99357.22;;;31.80;23.58
48964;BME280;34776;48.180;16.420;2023-07-31T13:57:51;99357.31;;;31.73;23.38
48964;BME280;34776;48.180;16.420;2023-07-31T14:00:19;99362.19;;;31.90;23.35
48964;BME280;34776;48.180;16.420;2023-07-31T14:02:45;99360.66;;;32.12;23.59
48964;BME280;34776;48.180;16.420;2023-07-31T14:05:10;99357.91;;;32.31;23.26
48964;BME280;34776;48.180;16.420;2023-07-31T14:07:36;99350.56;;;32.25;23.53
48964;BME280;34776;48.180;16.420;2023-07-31T14:10:01;99347.38;;;32.28;23.74
48964;BME280;34776;48.180;16.420;2023-07-31T14:12:29;99339.94;;;32.47;23.30
48964;BME280;34776;48.180;16.420;2023-07-31T14:14:54;99330.59;;;32.48;23.34
48964;BME280;34776;48.180;16.420;2023-07-31T14:17:19;99328.06;;;32.16;23.92
48964;BME280;34776;48.180;16.420;2023-07-31T14:19:45;99339.16;;;32.09;23.95
48964;BME280;34776;48.180;16.420;2023-07-31T14:22:10;99324.47;;;32.34;23.70
48964;BME280;34776;48.180;16.420;2023-07-31T14:24:36;99324.81;;;32.38;23.31
48964;BME280;34776;48.180;16.420;2023-07-31T14:27:01;99322.03;;;32.26;23.21
48964;BME280;34776;48.180;16.420;2023-07-31T14:29:26;99313.66;;;31.84;23.37
48964;BME280;34776;48.180;16.420;2023-07-31T14:31:52;99317.59;;;31.51;23.89
48964;BME280;34776;48.180;16.420;2023-07-31T14:34:17;99301.53;;;31.29;23.61
48964;BME280;34776;48.180;16.420;2023-07-31T14:36:43;99310.22;;;31.01;24.41
48964;BME280;34776;48.180;16.420;2023-07-31T14:39:09;99296.38;;;31.40;24.33
48964;BME280;34776;48.180;16.420;2023-07-31T14:41:36;99294.72;;;31.75;23.90
48964;BME280;34776;48.180;16.420;2023-07-31T14:44:01;99300.47;;;32.23;23.28
48964;BME280;34776;48.180;16.420;2023-07-31T14:46:26;99283.31;;;32.69;22.95
48964;BME280;34776;48.180;16.420;2023-07-31T14:48:52;99280.22;;;32.78;22.94
48964;BME280;34776;48.180;16.420;2023-07-31T14:51:17;99278.94;;;33.04;23.03
48964;BME280;34776;48.180;16.420;2023-07-31T14:53:43;99271.66;;;33.33;22.24
48964;BME280;34776;48.180;16.420;2023-07-31T14:56:08;99280.63;;;33.28;21.72
48964;BME280;34776;48.180;16.420;2023-07-31T14:58:34;99279.69;;;33.11;21.91
48964;BME280;34776;48.180;16.420;2023-07-31T15:00:59;99273.31;;;32.87;21.80
48964;BME280;34776;48.180;16.420;2023-07-31T15:03:24;99263.94;;;32.64;22.52
48964;BME280;34776;48.180;16.420;2023-07-31T15:05:50;99264.31;;;32.68;22.10
48964;BME280;34776;48.180;16.420;2023-07-31T15:08:17;99257.16;;;32.48;22.75
48964;BME280;34776;48.180;16.420;2023-07-31T15:10:42;99255.84;;;32.39;22.52
48964;BME280;34776;48.180;16.420;2023-07-31T15:13:08;99251.19;;;32.09;22.81
48964;BME280;34776;48.180;16.420;2023-07-31T15:15:33;99255.63;;;32.10;22.78
48964;BME280;34776;48.180;16.420;2023-07-31T15:17:58;99248.56;;;32.14;22.51
48964;BME280;34776;48.180;16.420;2023-07-31T15:20:24;99249.66;;;32.13;22.95
48964;BME280;34776;48.180;16.420;2023-07-31T15:22:49;99243.84;;;32.22;22.40
48964;BME280;34776;48.180;16.420;2023-07-31T15:25:15;99240.94;;;32.16;22.57
48964;BME280;34776;48.180;16.420;2023-07-31T15:27:40;99246.91;;;32.13;22.93
48964;BME280;34776;48.180;16.420;2023-07-31T15:30:06;99249.06;;;31.93;23.29
48964;BME280;34776;48.180;16.420;2023-07-31T15:32:32;99245.53;;;32.04;23.19
48964;BME280;34776;48.180;16.420;2023-07-31T15:34:57;99241.09;;;32.22;23.04
48964;BME280;34776;48.180;16.420;2023-07-31T15:37:22;99245.69;;;32.09;22.70
48964;BME280;34776;48.180;16.420;2023-07-31T15:39:48;99241.66;;;31.93;22.76
48964;BME280;34776;48.180;16.420;2023-07-31T15:42:13;99239.94;;;31.62;22.97
48964;BME280;34776;48.180;16.420;2023-07-31T15:44:38;99240.50;;;31.09;23.52
48964;BME280;34776;48.180;16.420;2023-07-31T15:47:04;99234.59;;;30.87;23.99
48964;BME280;34776;48.180;16.420;2023-07-31T15:49:29;99238.38;;;31.11;24.08
48964;BME280;34776;48.180;16.420;2023-07-31T15:51:55;99245.41;;;31.25;23.64
48964;BME280;34776;48.180;16.420;2023-07-31T15:54:23;99240.84;;;31.38;23.60
48964;BME280;34776;48.180;16.420;2023-07-31T15:56:50;99236.16;;;31.45;23.66
48964;BME280;34776;48.180;16.420;2023-07-31T15:59:15;99243.47;;;31.51;23.39
48964;BME280;34776;48.180;16.420;2023-07-31T16:01:40;99236.22;;;31.57;23.43
48964;BME280;34776;48.180;16.420;2023-07-31T16:04:06;99239.63;;;31.52;23.28
48964;BME280;34776;48.180;16.420;2023-07-31T16:06:31;99240.38;;;31.22;23.66
48964;BME280;34776;48.180;16.420;2023-07-31T16:08:56;99233.31;;;31.08;23.89
48964;BME280;34776;48.180;16.420;2023-07-31T16:11:22;99235.94;;;31.03;23.84
48964;BME280;34776;48.180;16.420;2023-07-31T16:13:47;99235.59;;;30.92;24.14
48964;BME280;34776;48.180;16.420;2023-07-31T16:16:13;99231.88;;;30.80;24.22
48964;BME280;34776;48.180;16.420;2023-07-31T16:18:38;99235.03;;;30.59;24.14
48964;BME280;34776;48.180;16.420;2023-07-31T16:21:03;99221.69;;;30.37;24.71
48964;BME280;34776;48.180;16.420;2023-07-31T16:23:31;99213.09;;;30.27;24.67
48964;BME280;34776;48.180;16.420;2023-07-31T16:25:57;99215.03;;;30.20;25.11
48964;BME280;34776;48.180;16.420;2023-07-31T16:28:23;99223.09;;;30.14;25.50
48964;BME280;34776;48.180;16.420;2023-07-31T16:30:48;99219.81;;;29.99;25.50
48964;BME280;34776;48.180;16.420;2023-07-31T16:33:13;99225.19;;;29.81;25.91
48964;BME280;34776;48.180;16.420;2023-07-31T16:35:40;99217.63;;;29.69;26.29
48964;BME280;34776;48.180;16.420;2023-07-31T16:38:06;99219.53;;;29.62;26.13
48964;BME280;34776;48.180;16.420;2023-07-31T16:40:31;99214.88;;;29.63;26.58
48964;BME280;34776;48.180;16.420;2023-07-31T16:42:56;99212.41;;;29.61;26.55
48964;BME280;34776;48.180;16.420;2023-07-31T16:45:23;99213.69;;;29.52;26.63
48964;BME280;34776;48.180;16.420;2023-07-31T16:47:48;99211.59;;;29.47;26.93
48964;BME280;34776;48.180;16.420;2023-07-31T16:50:14;99211.19;;;29.44;27.35
48964;BME280;34776;48.180;16.420;2023-07-31T16:52:39;99207.63;;;29.37;27.56
48964;BME280;34776;48.180;16.420;2023-07-31T16:55:07;99207.00;;;29.34;27.38
48964;BME280;34776;48.180;16.420;2023-07-31T16:57:33;99201.53;;;29.34;27.54
48964;BME280;34776;48.180;16.420;2023-07-31T16:59:59;99201.13;;;29.31;27.84
48964;BME280;34776;48.180;16.420;2023-07-31T17:02:27;99200.31;;;29.24;27.67
48964;BME280;34776;48.180;16.420;2023-07-31T17:04:52;99203.69;;;29.06;28.31
48964;BME280;34776;48.180;16.420;2023-07-31T17:07:18;99200.34;;;28.90;28.51
48964;BME280;34776;48.180;16.420;2023-07-31T17:09:46;99204.59;;;28.73;28.78
48964;BME280;34776;48.180;16.420;2023-07-31T17:12:11;99206.28;;;28.61;29.25
48964;BME280;34776;48.180;16.420;2023-07-31T17:14:37;99204.16;;;28.49;29.64
48964;BME280;34776;48.180;16.420;2023-07-31T17:17:03;99196.56;;;28.38;29.81
48964;BME280;34776;48.180;16.420;2023-07-31T17:19:29;99208.75;;;28.29;30.29
48964;BME280;34776;48.180;16.420;2023-07-31T17:21:54;99199.06;;;28.20;30.08
48964;BME280;34776;48.180;16.420;2023-07-31T17:24:20;99196.53;;;28.11;30.51
48964;BME280;34776;48.180;16.420;2023-07-31T17:26:45;99200.31;;;28.04;30.86
48964;BME280;34776;48.180;16.420;2023-07-31T17:29:15;99202.41;;;27.95;31.00
48964;BME280;34776;48.180;16.420;2023-07-31T17:31:42;99204.25;;;27.88;31.10
48964;BME280;34776;48.180;16.420;2023-07-31T17:34:09;99219.13;;;27.79;31.40
48964;BME280;34776;48.180;16.420;2023-07-31T17:36:35;99212.56;;;27.66;31.69
48964;BME280;34776;48.180;16.420;2023-07-31T17:39:00;99216.13;;;27.60;32.17
48964;BME280;34776;48.180;16.420;2023-07-31T17:41:26;99212.09;;;27.56;32.07
48964;BME280;34776;48.180;16.420;2023-07-31T17:43:53;99218.81;;;27.53;32.22
48964;BME280;34776;48.180;16.420;2023-07-31T17:46:19;99218.16;;;27.45;32.46
48964;BME280;34776;48.180;16.420;2023-07-31T17:48:44;99220.19;;;27.36;32.70
48964;BME280;34776;48.180;16.420;2023-07-31T17:51:10;99217.66;;;27.28;32.91
48964;BME280;34776;48.180;16.420;2023-07-31T17:53:35;99223.88;;;27.22;33.45
48964;BME280;34776;48.180;16.420;2023-07-31T17:56:00;99216.88;;;27.12;33.47
48964;BME280;34776;48.180;16.420;2023-07-31T17:58:27;99215.81;;;27.07;33.65
48964;BME280;34776;48.180;16.420;2023-07-31T18:00:53;99218.09;;;27.03;34.09
48964;BME280;34776;48.180;16.420;2023-07-31T18:03:19;99213.63;;;26.96;34.34
48964;BME280;34776;48.180;16.420;2023-07-31T18:05:46;99218.22;;;26.88;34.40
48964;BME280;34776;48.180;16.420;2023-07-31T18:08:11;99214.38;;;26.83;35.06
48964;BME280;34776;48.180;16.420;2023-07-31T18:10:43;99212.66;;;26.75;35.88
48964;BME280;34776;48.180;16.420;2023-07-31T18:13:09;99208.84;;;26.69;35.84
48964;BME280;34776;48.180;16.420;2023-07-31T18:15:34;99213.59;;;26.61;36.33
48964;BME280;34776;48.180;16.420;2023-07-31T18:17:59;99209.94;;;26.53;36.79
48964;BME280;34776;48.180;16.420;2023-07-31T18:20:26;99205.28;;;26.47;37.42
48964;BME280;34776;48.180;16.420;2023-07-31T18:22:51;99201.47;;;26.42;37.60
48964;BME280;34776;48.180;16.420;2023-07-31T18:25:17;99203.91;;;26.37;38.13
48964;BME280;34776;48.180;16.420;2023-07-31T18:27:43;99195.50;;;26.31;38.26
48964;BME280;34776;48.180;16.420;2023-07-31T18:30:09;99197.13;;;26.26;38.78
48964;BME280;34776;48.180;16.420;2023-07-31T18:32:35;99191.81;;;26.18;38.97
48964;BME280;34776;48.180;16.420;2023-07-31T18:35:01;99185.06;;;26.13;38.84
48964;BME280;34776;48.180;16.420;2023-07-31T18:37:26;99198.44;;;26.08;39.40
48964;BME280;34776;48.180;16.420;2023-07-31T18:39:52;99200.69;;;26.05;39.61
48964;BME280;34776;48.180;16.420;2023-07-31T18:42:17;99201.28;;;26.00;39.75
48964;BME280;34776;48.180;16.420;2023-07-31T18:44:42;99197.25;;;25.96;40.00
48964;BME280;34776;48.180;16.420;2023-07-31T18:47:08;99198.69;;;25.92;40.30
48964;BME280;34776;48.180;16.420;2023-07-31T18:49:33;99202.13;;;25.86;40.61
48964;BME280;34776;48.180;16.420;2023-07-31T18:51:58;99198.28;;;25.80;41.02
48964;BME280;34776;48.180;16.420;2023-07-31T18:54:24;99197.00;;;25.76;41.19
48964;BME280;34776;48.180;16.420;2023-07-31T18:56:49;99207.44;;;25.72;41.32
48964;BME280;34776;48.180;16.420;2023-07-31T18:59:14;99204.44;;;25.67;41.68
48964;BME280;34776;48.180;16.420;2023-07-31T19:01:40;99205.66;;;25.65;41.87
48964;BME280;34776;48.180;16.420;2023-07-31T19:04:09;99208.97;;;25.60;41.99
48964;BME280;34776;48.180;16.420;2023-07-31T19:06:34;99198.84;;;25.54;42.02
48964;BME280;34776;48.180;16.420;2023-07-31T19:09:01;99205.69;;;25.50;42.71
48964;BME280;34776;48.180;16.420;2023-07-31T19:11:26;99208.78;;;25.47;42.79
48964;BME280;34776;48.180;16.420;2023-07-31T19:13:52;99205.63;;;25.43;42.95
48964;BME280;34776;48.180;16.420;2023-07-31T19:16:17;99199.72;;;25.40;43.19
48964;BME280;34776;48.180;16.420;2023-07-31T19:18:43;99209.47;;;25.34;43.62
48964;BME280;34776;48.180;16.420;2023-07-31T19:21:10;99206.47;;;25.29;43.61
48964;BME280;34776;48.180;16.420;2023-07-31T19:23:36;99204.97;;;25.26;43.95
48964;BME280;34776;48.180;16.420;2023-07-31T19:26:01;99211.81;;;25.22;44.17
48964;BME280;34776;48.180;16.420;2023-07-31T19:28:27;99206.72;;;25.19;44.29
48964;BME280;34776;48.180;16.420;2023-07-31T19:30:53;99201.47;;;25.18;44.18
48964;BME280;34776;48.180;16.420;2023-07-31T19:33:18;99204.38;;;25.16;44.37
48964;BME280;34776;48.180;16.420;2023-07-31T19:35:43;99203.06;;;25.12;44.84
48964;BME280;34776;48.180;16.420;2023-07-31T19:38:09;99198.22;;;25.07;44.78
48964;BME280;34776;48.180;16.420;2023-07-31T19:40:34;99204.19;;;25.03;45.10
48964;BME280;34776;48.180;16.420;2023-07-31T19:42:59;99190.31;;;24.98;45.51
48964;BME280;34776;48.180;16.420;2023-07-31T19:45:28;99191.72;;;24.94;45.63
48964;BME280;34776;48.180;16.420;2023-07-31T19:47:55;99195.66;;;24.91;45.77
48964;BME280;34776;48.180;16.420;2023-07-31T19:50:20;99189.94;;;24.86;45.99
48964;BME280;34776;48.180;16.420;2023-07-31T19:52:46;99186.56;;;24.84;46.50
48964;BME280;34776;48.180;16.420;2023-07-31T19:55:11;99192.72;;;24.78;46.42
48964;BME280;34776;48.180;16.420;2023-07-31T19:57:37;99184.31;;;24.73;46.82
48964;BME280;34776;48.180;16.420;2023-07-31T20:00:02;99189.25;;;24.69;46.83
48964;BME280;34776;48.180;16.420;2023-07-31T20:02:29;99182.50;;;24.65;46.82
48964;BME280;34776;48.180;16.420;2023-07-31T20:04:54;99184.94;;;24.60;47.10
48964;BME280;34776;48.180;16.420;2023-07-31T20:07:20;99178.19;;;24.56;47.24
48964;BME280;34776;48.180;16.420;2023-07-31T20:09:45;99186.03;;;24.50;47.50
48964;BME280;34776;48.180;16.420;2023-07-31T20:12:10;99190.13;;;24.46;47.65
48964;BME280;34776;48.180;16.420;2023-07-31T20:14:36;99192.53;;;24.41;47.88
48964;BME280;34776;48.180;16.420;2023-07-31T20:17:02;99195.81;;;24.37;47.92
48964;BME280;34776;48.180;16.420;2023-07-31T20:19:28;99198.03;;;24.33;48.33
48964;BME280;34776;48.180;16.420;2023-07-31T20:21:53;99198.22;;;24.31;48.48
48964;BME280;34776;48.180;16.420;2023-07-31T20:24:21;99196.06;;;24.27;48.75
48964;BME280;34776;48.180;16.420;2023-07-31T20:26:46;99200.00;;;24.24;48.79
48964;BME280;34776;48.180;16.420;2023-07-31T20:29:11;99191.34;;;24.21;48.83
48964;BME280;34776;48.180;16.420;2023-07-31T20:31:37;99197.16;;;24.18;48.83
48964;BME280;34776;48.180;16.420;2023-07-31T20:34:06;99188.34;;;24.16;49.30
48964;BME280;34776;48.180;16.420;2023-07-31T20:36:36;99176.84;;;24.14;49.18
48964;BME280;34776;48.180;16.420;2023-07-31T20:39:02;99181.59;;;24.11;49.52
48964;BME280;34776;48.180;16.420;2023-07-31T20:41:32;99176.50;;;24.08;49.43
48964;BME280;34776;48.180;16.420;2023-07-31T20:43:58;99176.06;;;24.05;49.72
48964;BME280;34776;48.180;16.420;2023-07-31T20:46:23;99172.69;;;24.03;49.87
48964;BME280;34776;48.180;16.420;2023-07-31T20:48:48;99170.31;;;24.00;50.07
48964;BME280;34776;48.180;16.420;2023-07-31T20:51:14;99177.63;;;23.99;50.03
48964;BME280;34776;48.180;16.420;2023-07-31T20:53:39;99166.75;;;23.99;50.47
48964;BME280;34776;48.180;16.420;2023-07-31T20:56:05;99168.47;;;24.00;50.58
48964;BME280;34776;48.180;16.420;2023-07-31T20:58:31;99174.56;;;24.02;50.72
48964;BME280;34776;48.180;16.420;2023-07-31T21:00:57;99169.59;;;24.06;50.53
48964;BME280;34776;48.180;16.420;2023-07-31T21:03:22;99169.91;;;24.11;50.47
48964;BME280;34776;48.180;16.420;2023-07-31T21:05:52;99171.22;;;24.15;50.30
48964;BME280;34776;48.180;16.420;2023-07-31T21:08:18;99165.59;;;24.17;50.37
48964;BME280;34776;48.180;16.420;2023-07-31T21:10:43;99166.25;;;24.19;50.60
48964;BME280;34776;48.180;16.420;2023-07-31T21:13:09;99165.53;;;24.25;50.40
48964;BME280;34776;48.180;16.420;2023-07-31T21:15:39;99154.66;;;24.25;50.75
48964;BME280;34776;48.180;16.420;2023-07-31T21:18:05;99149.63;;;24.22;51.22
48964;BME280;34776;48.180;16.420;2023-07-31T21:20:31;99156.28;;;24.19;51.07
48964;BME280;34776;48.180;16.420;2023-07-31T21:22:58;99156.28;;;24.19;51.78
48964;BME280;34776;48.180;16.420;2023-07-31T21:25:34;99147.97;;;24.13;52.06
48964;BME280;34776;48.180;16.420;2023-07-31T21:28:00;99141.31;;;24.00;52.91